sensor_id;sensor_type;location;lat;lon;timestamp;pressure;altitude;pressure_sealevel;temperature
67822;BMP180;54434;50.096;20.082;2023-08-08T00:01:29;98467.60;;;14.20
67822;BMP180;54434;50.096;20.082;2023-08-08T00:04:07;98472.40;;;14.20
67822;BMP180;54434;50.096;20.082;2023-08-08T00:06:45;98472.00;;;14.20
67822;BMP180;54434;50.096;20.082;2023-08-08T00:09:22;98472.80;;;14.18
67822;BMP180;54434;50.096;20.082;2023-08-08T00:11:59;98471.00;;;14.10
67822;BMP180;54434;50.096;20.082;2023-08-08T00:14:37;98473.20;;;14.10
67822;BMP180;54434;50.096;20.082;2023-08-08T00:17:14;98473.40;;;14.10
67822;BMP180;54434;50.096;20.082;2023-08-08T00:19:52;98475.20;;;14.10
67822;BMP180;54434;50.096;20.082;2023-08-08T00:22:29;98474.20;;;14.10
67822;BMP180;54434;50.096;20.082;2023-08-08T00:25:08;98474.40;;;14.00
67822;BMP180;54434;50.096;20.082;2023-08-08T00:27:45;98479.60;;;14.00
67822;BMP180;54434;50.096;20.082;2023-08-08T00:30:23;98482.00;;;14.00
67822;BMP180;54434;50.096;20.082;2023-08-08T00:33:00;98481.40;;;14.00
67822;BMP180;54434;50.096;20.082;2023-08-08T00:35:37;98482.60;;;14.00
67822;BMP180;54434;50.096;20.082;2023-08-08T00:38:15;98484.20;;;14.00
67822;BMP180;54434;50.096;20.082;2023-08-08T00:40:54;98483.00;;;14.00
67822;BMP180;54434;50.096;20.082;2023-08-08T00:43:32;98489.40;;;13.90
67822;BMP180;54434;50.096;20.082;2023-08-08T00:46:09;98490.60;;;13.90
67822;BMP180;54434;50.096;20.082;2023-08-08T00:48:47;98490.40;;;13.90
67822;BMP180;54434;50.096;20.082;2023-08-08T00:51:25;98495.20;;;13.90
67822;BMP180;54434;50.096;20.082;2023-08-08T00:54:04;98503.40;;;13.80
67822;BMP180;54434;50.096;20.082;2023-08-08T00:56:42;98502.40;;;13.80
67822;BMP180;54434;50.096;20.082;2023-08-08T00:59:22;98505.60;;;13.80
67822;BMP180;54434;50.096;20.082;2023-08-08T01:02:02;98510.20;;;13.78
67822;BMP180;54434;50.096;20.082;2023-08-08T01:04:39;98515.60;;;13.70
67822;BMP180;54434;50.096;20.082;2023-08-08T01:07:33;98518.00;;;13.70
67822;BMP180;54434;50.096;20.082;2023-08-08T01:10:17;98523.60;;;13.70
67822;BMP180;54434;50.096;20.082;2023-08-08T01:13:02;98529.60;;;13.70
67822;BMP180;54434;50.096;20.082;2023-08-08T01:15:41;98530.60;;;13.70
67822;BMP180;54434;50.096;20.082;2023-08-08T01:18:21;98534.60;;;13.70
67822;BMP180;54434;50.096;20.082;2023-08-08T01:21:00;98529.00;;;13.70
67822;BMP180;54434;50.096;20.082;2023-08-08T01:23:49;98526.80;;;13.70
67822;BMP180;54434;50.096;20.082;2023-08-08T01:26:30;98530.00;;;13.66
67822;BMP180;54434;50.096;20.082;2023-08-08T01:29:08;98532.60;;;13.60
67822;BMP180;54434;50.096;20.082;2023-08-08T01:31:45;98535.60;;;13.60
67822;BMP180;54434;50.096;20.082;2023-08-08T01:34:23;98534.80;;;13.60
67822;BMP180;54434;50.096;20.082;2023-08-08T01:37:09;98531.00;;;13.60
67822;BMP180;54434;50.096;20.082;2023-08-08T01:39:50;98535.40;;;13.58
67822;BMP180;54434;50.096;20.082;2023-08-08T01:42:30;98531.80;;;13.50
67822;BMP180;54434;50.096;20.082;2023-08-08T01:45:11;98528.80;;;13.50
67822;BMP180;54434;50.096;20.082;2023-08-08T01:47:54;98532.60;;;13.50
67822;BMP180;54434;50.096;20.082;2023-08-08T01:50:32;98531.20;;;13.40
67822;BMP180;54434;50.096;20.082;2023-08-08T01:53:09;98536.60;;;13.40
67822;BMP180;54434;50.096;20.082;2023-08-08T01:55:47;98537.60;;;13.40
67822;BMP180;54434;50.096;20.082;2023-08-08T01:58:25;98529.80;;;13.36
67822;BMP180;54434;50.096;20.082;2023-08-08T02:01:02;98532.20;;;13.30
67822;BMP180;54434;50.096;20.082;2023-08-08T02:03:40;98536.60;;;13.30
67822;BMP180;54434;50.096;20.082;2023-08-08T02:06:19;98529.80;;;13.28
67822;BMP180;54434;50.096;20.082;2023-08-08T02:08:57;98532.20;;;13.20
67822;BMP180;54434;50.096;20.082;2023-08-08T02:11:35;98534.40;;;13.20
67822;BMP180;54434;50.096;20.082;2023-08-08T02:14:12;98537.80;;;13.20
67822;BMP180;54434;50.096;20.082;2023-08-08T02:16:50;98537.40;;;13.10
67822;BMP180;54434;50.096;20.082;2023-08-08T02:19:27;98541.20;;;13.10
67822;BMP180;54434;50.096;20.082;2023-08-08T02:22:06;98549.80;;;13.02
67822;BMP180;54434;50.096;20.082;2023-08-08T02:24:43;98551.40;;;13.00
67822;BMP180;54434;50.096;20.082;2023-08-08T02:27:21;98552.00;;;13.00
67822;BMP180;54434;50.096;20.082;2023-08-08T02:29:58;98552.80;;;12.94
67822;BMP180;54434;50.096;20.082;2023-08-08T02:32:36;98558.00;;;12.90
67822;BMP180;54434;50.096;20.082;2023-08-08T02:35:15;98560.00;;;12.90
67822;BMP180;54434;50.096;20.082;2023-08-08T02:37:52;98560.60;;;12.90
67822;BMP180;54434;50.096;20.082;2023-08-08T02:40:30;98562.40;;;12.80
67822;BMP180;54434;50.096;20.082;2023-08-08T02:43:10;98565.80;;;12.80
67822;BMP180;54434;50.096;20.082;2023-08-08T02:45:48;98566.80;;;12.76
67822;BMP180;54434;50.096;20.082;2023-08-08T02:48:26;98571.60;;;12.70
67822;BMP180;54434;50.096;20.082;2023-08-08T02:51:04;98573.20;;;12.70
67822;BMP180;54434;50.096;20.082;2023-08-08T02:53:42;98572.80;;;12.70
67822;BMP180;54434;50.096;20.082;2023-08-08T02:56:19;98581.40;;;12.62
67822;BMP180;54434;50.096;20.082;2023-08-08T02:58:58;98577.20;;;12.60
67822;BMP180;54434;50.096;20.082;2023-08-08T03:01:35;98581.80;;;12.60
67822;BMP180;54434;50.096;20.082;2023-08-08T03:04:21;98581.80;;;12.54
67822;BMP180;54434;50.096;20.082;2023-08-08T03:06:58;98580.80;;;12.50
67822;BMP180;54434;50.096;20.082;2023-08-08T03:09:38;98588.80;;;12.50
67822;BMP180;54434;50.096;20.082;2023-08-08T03:12:16;98586.80;;;12.50
67822;BMP180;54434;50.096;20.082;2023-08-08T03:14:54;98594.80;;;12.46
67822;BMP180;54434;50.096;20.082;2023-08-08T03:17:31;98597.40;;;12.40
67822;BMP180;54434;50.096;20.082;2023-08-08T03:20:12;98593.60;;;12.40
67822;BMP180;54434;50.096;20.082;2023-08-08T03:22:50;98597.80;;;12.40
67822;BMP180;54434;50.096;20.082;2023-08-08T03:25:28;98604.00;;;12.40
67822;BMP180;54434;50.096;20.082;2023-08-08T03:28:06;98608.40;;;12.40
67822;BMP180;54434;50.096;20.082;2023-08-08T03:30:44;98614.00;;;12.40
67822;BMP180;54434;50.096;20.082;2023-08-08T03:33:21;98616.80;;;12.40
67822;BMP180;54434;50.096;20.082;2023-08-08T03:35:59;98619.80;;;12.40
67822;BMP180;54434;50.096;20.082;2023-08-08T03:38:37;98621.60;;;12.40
67822;BMP180;54434;50.096;20.082;2023-08-08T03:41:15;98620.20;;;12.40
67822;BMP180;54434;50.096;20.082;2023-08-08T03:43:52;98623.80;;;12.40
67822;BMP180;54434;50.096;20.082;2023-08-08T03:46:29;98624.80;;;12.50
67822;BMP180;54434;50.096;20.082;2023-08-08T03:49:07;98630.80;;;12.50
67822;BMP180;54434;50.096;20.082;2023-08-08T03:51:44;98634.00;;;12.50
67822;BMP180;54434;50.096;20.082;2023-08-08T03:54:23;98633.80;;;12.60
67822;BMP180;54434;50.096;20.082;2023-08-08T03:57:01;98636.60;;;12.68
67822;BMP180;54434;50.096;20.082;2023-08-08T03:59:38;98639.20;;;12.78
67822;BMP180;54434;50.096;20.082;2023-08-08T04:02:16;98643.80;;;12.90
67822;BMP180;54434;50.096;20.082;2023-08-08T04:04:53;98644.60;;;13.00
67822;BMP180;54434;50.096;20.082;2023-08-08T04:07:30;98648.60;;;13.16
67822;BMP180;54434;50.096;20.082;2023-08-08T04:10:10;98651.00;;;13.50
67822;BMP180;54434;50.096;20.082;2023-08-08T04:12:47;98652.80;;;13.80
67822;BMP180;54434;50.096;20.082;2023-08-08T04:15:25;98658.20;;;14.20
67822;BMP180;54434;50.096;20.082;2023-08-08T04:18:06;98660.40;;;14.60
67822;BMP180;54434;50.096;20.082;2023-08-08T04:20:44;98660.00;;;14.90
67822;BMP180;54434;50.096;20.082;2023-08-08T04:23:23;98668.40;;;15.10
67822;BMP180;54434;50.096;20.082;2023-08-08T04:26:02;98679.20;;;15.40
67822;BMP180;54434;50.096;20.082;2023-08-08T04:28:39;98682.60;;;15.60
67822;BMP180;54434;50.096;20.082;2023-08-08T04:31:17;98685.60;;;15.80
67822;BMP180;54434;50.096;20.082;2023-08-08T04:33:54;98692.20;;;16.20
67822;BMP180;54434;50.096;20.082;2023-08-08T04:36:37;98691.00;;;16.66
67822;BMP180;54434;50.096;20.082;2023-08-08T04:39:14;98697.40;;;17.10
67822;BMP180;54434;50.096;20.082;2023-08-08T04:41:51;98702.20;;;17.54
67822;BMP180;54434;50.096;20.082;2023-08-08T04:44:29;98702.20;;;17.80
67822;BMP180;54434;50.096;20.082;2023-08-08T04:47:07;98705.80;;;18.10
67822;BMP180;54434;50.096;20.082;2023-08-08T04:49:45;98708.00;;;18.40
67822;BMP180;54434;50.096;20.082;2023-08-08T04:52:22;98715.80;;;18.76
67822;BMP180;54434;50.096;20.082;2023-08-08T04:54:59;98719.00;;;19.10
67822;BMP180;54434;50.096;20.082;2023-08-08T04:57:37;98723.60;;;19.00
67822;BMP180;54434;50.096;20.082;2023-08-08T05:00:18;98722.60;;;18.90
67822;BMP180;54434;50.096;20.082;2023-08-08T05:02:55;98720.40;;;19.26
67822;BMP180;54434;50.096;20.082;2023-08-08T05:05:33;98715.60;;;19.50
67822;BMP180;54434;50.096;20.082;2023-08-08T05:08:11;98721.20;;;19.90
67822;BMP180;54434;50.096;20.082;2023-08-08T05:10:48;98724.60;;;20.00
67822;BMP180;54434;50.096;20.082;2023-08-08T05:13:26;98731.20;;;20.10
67822;BMP180;54434;50.096;20.082;2023-08-08T05:16:04;98733.80;;;19.76
67822;BMP180;54434;50.096;20.082;2023-08-08T05:18:42;98737.60;;;19.48
67822;BMP180;54434;50.096;20.082;2023-08-08T05:21:22;98743.40;;;19.16
67822;BMP180;54434;50.096;20.082;2023-08-08T05:24:00;98747.20;;;19.30
67822;BMP180;54434;50.096;20.082;2023-08-08T05:26:38;98752.00;;;19.70
67822;BMP180;54434;50.096;20.082;2023-08-08T05:29:15;98755.00;;;20.02
67822;BMP180;54434;50.096;20.082;2023-08-08T05:31:53;98753.20;;;20.38
67822;BMP180;54434;50.096;20.082;2023-08-08T05:34:30;98765.80;;;20.64
67822;BMP180;54434;50.096;20.082;2023-08-08T05:37:08;98765.00;;;20.68
67822;BMP180;54434;50.096;20.082;2023-08-08T05:39:53;98764.80;;;20.44
67822;BMP180;54434;50.096;20.082;2023-08-08T05:42:30;98762.60;;;20.54
67822;BMP180;54434;50.096;20.082;2023-08-08T05:45:10;98772.60;;;20.84
67822;BMP180;54434;50.096;20.082;2023-08-08T05:47:48;98774.00;;;21.12
67822;BMP180;54434;50.096;20.082;2023-08-08T05:50:26;98778.20;;;21.22
67822;BMP180;54434;50.096;20.082;2023-08-08T05:53:03;98780.80;;;21.02
67822;BMP180;54434;50.096;20.082;2023-08-08T05:55:43;98779.40;;;20.62
67822;BMP180;54434;50.096;20.082;2023-08-08T05:58:21;98781.80;;;20.32
67822;BMP180;54434;50.096;20.082;2023-08-08T06:00:59;98778.20;;;20.00
67822;BMP180;54434;50.096;20.082;2023-08-08T06:03:37;98781.60;;;19.70
67822;BMP180;54434;50.096;20.082;2023-08-08T06:06:14;98782.20;;;19.50
67822;BMP180;54434;50.096;20.082;2023-08-08T06:08:52;98782.00;;;19.50
67822;BMP180;54434;50.096;20.082;2023-08-08T06:11:30;98781.60;;;19.56
67822;BMP180;54434;50.096;20.082;2023-08-08T06:14:07;98785.60;;;19.70
67822;BMP180;54434;50.096;20.082;2023-08-08T06:16:45;98785.20;;;19.60
67822;BMP180;54434;50.096;20.082;2023-08-08T06:19:23;98782.80;;;19.36
67822;BMP180;54434;50.096;20.082;2023-08-08T06:22:01;98783.20;;;19.20
67822;BMP180;54434;50.096;20.082;2023-08-08T06:24:39;98775.60;;;19.00
67822;BMP180;54434;50.096;20.082;2023-08-08T06:27:18;98778.80;;;19.32
67822;BMP180;54434;50.096;20.082;2023-08-08T06:29:56;98785.20;;;20.04
67822;BMP180;54434;50.096;20.082;2023-08-08T06:32:35;98783.40;;;20.30
67822;BMP180;54434;50.096;20.082;2023-08-08T06:35:14;98782.80;;;20.60
67822;BMP180;54434;50.096;20.082;2023-08-08T06:37:52;98786.40;;;20.80
67822;BMP180;54434;50.096;20.082;2023-08-08T06:40:30;98790.20;;;20.80
67822;BMP180;54434;50.096;20.082;2023-08-08T06:43:08;98784.00;;;20.78
67822;BMP180;54434;50.096;20.082;2023-08-08T06:45:45;98790.60;;;20.50
67822;BMP180;54434;50.096;20.082;2023-08-08T06:48:23;98786.60;;;20.30
67822;BMP180;54434;50.096;20.082;2023-08-08T06:51:01;98780.80;;;20.20
67822;BMP180;54434;50.096;20.082;2023-08-08T06:53:38;98784.80;;;20.20
67822;BMP180;54434;50.096;20.082;2023-08-08T06:56:16;98778.80;;;20.40
67822;BMP180;54434;50.096;20.082;2023-08-08T06:58:54;98778.60;;;20.98
67822;BMP180;54434;50.096;20.082;2023-08-08T07:01:32;98784.40;;;21.48
67822;BMP180;54434;50.096;20.082;2023-08-08T07:04:10;98781.20;;;21.72
67822;BMP180;54434;50.096;20.082;2023-08-08T07:06:48;98784.40;;;22.00
67822;BMP180;54434;50.096;20.082;2023-08-08T07:09:25;98788.60;;;22.30
67822;BMP180;54434;50.096;20.082;2023-08-08T07:12:03;98789.20;;;22.22
67822;BMP180;54434;50.096;20.082;2023-08-08T07:14:41;98784.60;;;22.00
67822;BMP180;54434;50.096;20.082;2023-08-08T07:17:19;98780.20;;;21.90
67822;BMP180;54434;50.096;20.082;2023-08-08T07:19:56;98778.00;;;21.80
67822;BMP180;54434;50.096;20.082;2023-08-08T07:22:36;98777.20;;;22.10
67822;BMP180;54434;50.096;20.082;2023-08-08T07:25:14;98780.80;;;22.30
67822;BMP180;54434;50.096;20.082;2023-08-08T07:27:52;98781.60;;;22.30
67822;BMP180;54434;50.096;20.082;2023-08-08T07:30:29;98776.80;;;22.30
67822;BMP180;54434;50.096;20.082;2023-08-08T07:33:08;98779.40;;;22.68
67822;BMP180;54434;50.096;20.082;2023-08-08T07:35:46;98781.80;;;23.02
67822;BMP180;54434;50.096;20.082;2023-08-08T07:38:23;98774.00;;;23.20
67822;BMP180;54434;50.096;20.082;2023-08-08T07:41:01;98775.40;;;23.48
67822;BMP180;54434;50.096;20.082;2023-08-08T07:43:38;98776.80;;;23.82
67822;BMP180;54434;50.096;20.082;2023-08-08T07:46:16;98771.20;;;23.60
67822;BMP180;54434;50.096;20.082;2023-08-08T07:48:53;98770.80;;;23.40
67822;BMP180;54434;50.096;20.082;2023-08-08T07:51:31;98770.40;;;23.38
67822;BMP180;54434;50.096;20.082;2023-08-08T07:54:09;98768.20;;;23.20
67822;BMP180;54434;50.096;20.082;2023-08-08T07:56:46;98770.20;;;23.20
67822;BMP180;54434;50.096;20.082;2023-08-08T07:59:24;98767.60;;;23.16
67822;BMP180;54434;50.096;20.082;2023-08-08T08:02:01;98773.60;;;23.10
67822;BMP180;54434;50.096;20.082;2023-08-08T08:04:39;98764.60;;;23.22
67822;BMP180;54434;50.096;20.082;2023-08-08T08:07:16;98759.40;;;23.22
67822;BMP180;54434;50.096;20.082;2023-08-08T08:09:54;98761.20;;;23.20
67822;BMP180;54434;50.096;20.082;2023-08-08T08:12:31;98762.60;;;22.94
67822;BMP180;54434;50.096;20.082;2023-08-08T08:15:12;98767.40;;;22.66
67822;BMP180;54434;50.096;20.082;2023-08-08T08:17:50;98764.00;;;22.60
67822;BMP180;54434;50.096;20.082;2023-08-08T08:20:27;98768.00;;;22.50
67822;BMP180;54434;50.096;20.082;2023-08-08T08:23:05;98767.20;;;22.20
67822;BMP180;54434;50.096;20.082;2023-08-08T08:25:44;98764.00;;;22.20
67822;BMP180;54434;50.096;20.082;2023-08-08T08:28:21;98765.80;;;22.02
67822;BMP180;54434;50.096;20.082;2023-08-08T08:31:05;98773.80;;;21.68
67822;BMP180;54434;50.096;20.082;2023-08-08T08:33:43;98771.80;;;21.26
67822;BMP180;54434;50.096;20.082;2023-08-08T08:36:20;98768.80;;;20.98
67822;BMP180;54434;50.096;20.082;2023-08-08T08:38:58;98766.60;;;20.70
67822;BMP180;54434;50.096;20.082;2023-08-08T08:41:38;98768.20;;;20.92
67822;BMP180;54434;50.096;20.082;2023-08-08T08:44:17;98766.60;;;21.34
67822;BMP180;54434;50.096;20.082;2023-08-08T08:46:56;98768.20;;;21.64
67822;BMP180;54434;50.096;20.082;2023-08-08T08:49:39;98761.60;;;21.90
67822;BMP180;54434;50.096;20.082;2023-08-08T08:52:20;98761.40;;;22.28
67822;BMP180;54434;50.096;20.082;2023-08-08T08:54:59;98758.40;;;22.70
67822;BMP180;54434;50.096;20.082;2023-08-08T08:57:38;98760.20;;;23.18
67822;BMP180;54434;50.096;20.082;2023-08-08T09:00:18;98766.20;;;23.40
67822;BMP180;54434;50.096;20.082;2023-08-08T09:02:57;98762.40;;;23.30
67822;BMP180;54434;50.096;20.082;2023-08-08T09:05:41;98764.20;;;23.00
67822;BMP180;54434;50.096;20.082;2023-08-08T09:08:24;98764.00;;;23.10
67822;BMP180;54434;50.096;20.082;2023-08-08T09:11:02;98766.80;;;23.30
67822;BMP180;54434;50.096;20.082;2023-08-08T09:13:41;98765.80;;;23.30
67822;BMP180;54434;50.096;20.082;2023-08-08T09:16:19;98762.80;;;23.00
67822;BMP180;54434;50.096;20.082;2023-08-08T09:18:57;98765.00;;;22.90
67822;BMP180;54434;50.096;20.082;2023-08-08T09:21:37;98762.20;;;23.10
67822;BMP180;54434;50.096;20.082;2023-08-08T09:24:15;98763.80;;;23.30
67822;BMP180;54434;50.096;20.082;2023-08-08T09:26:52;98754.00;;;23.20
67822;BMP180;54434;50.096;20.082;2023-08-08T09:29:30;98750.80;;;23.20
67822;BMP180;54434;50.096;20.082;2023-08-08T09:32:10;98752.80;;;23.20
67822;BMP180;54434;50.096;20.082;2023-08-08T09:34:49;98755.20;;;23.10
67822;BMP180;54434;50.096;20.082;2023-08-08T09:37:27;98754.60;;;23.10
67822;BMP180;54434;50.096;20.082;2023-08-08T09:40:08;98748.40;;;23.10
67822;BMP180;54434;50.096;20.082;2023-08-08T09:42:50;98747.40;;;23.16
67822;BMP180;54434;50.096;20.082;2023-08-08T09:45:34;98747.60;;;23.20
67822;BMP180;54434;50.096;20.082;2023-08-08T09:48:12;98751.20;;;23.20
67822;BMP180;54434;50.096;20.082;2023-08-08T09:50:51;98744.60;;;23.20
67822;BMP180;54434;50.096;20.082;2023-08-08T09:53:29;98743.20;;;23.10
67822;BMP180;54434;50.096;20.082;2023-08-08T09:56:08;98751.60;;;22.84
67822;BMP180;54434;50.096;20.082;2023-08-08T09:58:47;98743.80;;;22.60
67822;BMP180;54434;50.096;20.082;2023-08-08T10:01:26;98743.60;;;22.70
67822;BMP180;54434;50.096;20.082;2023-08-08T10:04:07;98742.40;;;22.80
67822;BMP180;54434;50.096;20.082;2023-08-08T10:06:45;98746.80;;;22.80
67822;BMP180;54434;50.096;20.082;2023-08-08T10:09:23;98740.00;;;22.68
67822;BMP180;54434;50.096;20.082;2023-08-08T10:12:02;98748.00;;;22.40
67822;BMP180;54434;50.096;20.082;2023-08-08T10:14:46;98744.00;;;22.16
67822;BMP180;54434;50.096;20.082;2023-08-08T10:17:25;98741.20;;;22.10
67822;BMP180;54434;50.096;20.082;2023-08-08T10:20:02;98743.20;;;22.00
67822;BMP180;54434;50.096;20.082;2023-08-08T10:22:53;98737.00;;;21.90
67822;BMP180;54434;50.096;20.082;2023-08-08T10:25:36;98732.60;;;21.74
67822;BMP180;54434;50.096;20.082;2023-08-08T10:28:18;98740.40;;;21.70
67822;BMP180;54434;50.096;20.082;2023-08-08T10:31:04;98736.00;;;21.80
67822;BMP180;54434;50.096;20.082;2023-08-08T10:33:47;98730.60;;;21.90
67822;BMP180;54434;50.096;20.082;2023-08-08T10:36:25;98733.00;;;22.00
67822;BMP180;54434;50.096;20.082;2023-08-08T10:39:04;98734.60;;;21.90
67822;BMP180;54434;50.096;20.082;2023-08-08T10:41:52;98736.40;;;21.90
67822;BMP180;54434;50.096;20.082;2023-08-08T10:44:29;98730.00;;;21.90
67822;BMP180;54434;50.096;20.082;2023-08-08T10:47:10;98726.60;;;21.90
67822;BMP180;54434;50.096;20.082;2023-08-08T10:49:58;98725.60;;;22.10
67822;BMP180;54434;50.096;20.082;2023-08-08T10:52:49;98731.80;;;22.26
67822;BMP180;54434;50.096;20.082;2023-08-08T10:55:33;98733.00;;;22.20
67822;BMP180;54434;50.096;20.082;2023-08-08T10:58:15;98735.60;;;22.30
67822;BMP180;54434;50.096;20.082;2023-08-08T11:00:55;98725.40;;;22.40
67822;BMP180;54434;50.096;20.082;2023-08-08T11:03:34;98723.40;;;22.58
67822;BMP180;54434;50.096;20.082;2023-08-08T11:06:13;98726.80;;;22.70
67822;BMP180;54434;50.096;20.082;2023-08-08T11:08:51;98729.20;;;22.96
67822;BMP180;54434;50.096;20.082;2023-08-08T11:11:37;98723.40;;;22.90
67822;BMP180;54434;50.096;20.082;2023-08-08T11:14:18;98724.00;;;22.90
67822;BMP180;54434;50.096;20.082;2023-08-08T11:16:56;98728.40;;;22.90
67822;BMP180;54434;50.096;20.082;2023-08-08T11:19:40;98730.20;;;22.98
67822;BMP180;54434;50.096;20.082;2023-08-08T11:22:18;98733.40;;;23.08
67822;BMP180;54434;50.096;20.082;2023-08-08T11:24:58;98733.20;;;23.00
67822;BMP180;54434;50.096;20.082;2023-08-08T11:27:39;98740.00;;;22.90
67822;BMP180;54434;50.096;20.082;2023-08-08T11:30:19;98735.00;;;22.90
67822;BMP180;54434;50.096;20.082;2023-08-08T11:32:57;98730.00;;;22.80
67822;BMP180;54434;50.096;20.082;2023-08-08T11:35:42;98728.20;;;22.90
67822;BMP180;54434;50.096;20.082;2023-08-08T11:38:21;98729.20;;;22.86
67822;BMP180;54434;50.096;20.082;2023-08-08T11:40:59;98726.20;;;22.70
67822;BMP180;54434;50.096;20.082;2023-08-08T11:43:37;98727.40;;;22.46
67822;BMP180;54434;50.096;20.082;2023-08-08T11:46:17;98732.20;;;22.42
67822;BMP180;54434;50.096;20.082;2023-08-08T11:48:55;98737.20;;;22.50
67822;BMP180;54434;50.096;20.082;2023-08-08T11:51:33;98736.20;;;22.50
67822;BMP180;54434;50.096;20.082;2023-08-08T11:54:12;98732.60;;;22.50
67822;BMP180;54434;50.096;20.082;2023-08-08T11:56:50;98728.60;;;22.60
67822;BMP180;54434;50.096;20.082;2023-08-08T11:59:28;98737.40;;;22.60
67822;BMP180;54434;50.096;20.082;2023-08-08T12:02:08;98731.40;;;22.40
67822;BMP180;54434;50.096;20.082;2023-08-08T12:04:50;98735.00;;;22.10
67822;BMP180;54434;50.096;20.082;2023-08-08T12:07:28;98739.80;;;21.90
67822;BMP180;54434;50.096;20.082;2023-08-08T12:10:18;98752.60;;;21.70
67822;BMP180;54434;50.096;20.082;2023-08-08T12:13:00;98762.00;;;21.40
67822;BMP180;54434;50.096;20.082;2023-08-08T12:15:36;98768.40;;;21.00
67822;BMP180;54434;50.096;20.082;2023-08-08T12:18:15;98775.00;;;20.60
67822;BMP180;54434;50.096;20.082;2023-08-08T12:20:53;98773.80;;;20.38
67822;BMP180;54434;50.096;20.082;2023-08-08T12:23:32;98773.80;;;20.36
67822;BMP180;54434;50.096;20.082;2023-08-08T12:26:10;98776.20;;;20.40
67822;BMP180;54434;50.096;20.082;2023-08-08T12:28:48;98783.20;;;20.30
67822;BMP180;54434;50.096;20.082;2023-08-08T12:31:26;98781.60;;;20.40
67822;BMP180;54434;50.096;20.082;2023-08-08T12:34:05;98787.00;;;20.42
67822;BMP180;54434;50.096;20.082;2023-08-08T12:36:43;98786.00;;;20.50
67822;BMP180;54434;50.096;20.082;2023-08-08T12:39:20;98793.40;;;20.50
67822;BMP180;54434;50.096;20.082;2023-08-08T12:41:58;98794.20;;;20.70
67822;BMP180;54434;50.096;20.082;2023-08-08T12:44:35;98792.80;;;20.80
67822;BMP180;54434;50.096;20.082;2023-08-08T12:47:13;98796.00;;;20.80
67822;BMP180;54434;50.096;20.082;2023-08-08T12:49:51;98795.20;;;20.80
67822;BMP180;54434;50.096;20.082;2023-08-08T12:52:29;98792.00;;;20.80
67822;BMP180;54434;50.096;20.082;2023-08-08T12:55:09;98781.80;;;20.60
67822;BMP180;54434;50.096;20.082;2023-08-08T12:57:47;98783.40;;;20.50
67822;BMP180;54434;50.096;20.082;2023-08-08T13:00:25;98774.80;;;20.40
67822;BMP180;54434;50.096;20.082;2023-08-08T13:03:03;98779.60;;;20.40
67822;BMP180;54434;50.096;20.082;2023-08-08T13:05:41;98766.20;;;20.50
67822;BMP180;54434;50.096;20.082;2023-08-08T13:08:18;98763.80;;;20.60
67822;BMP180;54434;50.096;20.082;2023-08-08T13:10:56;98767.60;;;20.70
67822;BMP180;54434;50.096;20.082;2023-08-08T13:13:34;98760.60;;;20.80
67822;BMP180;54434;50.096;20.082;2023-08-08T13:16:11;98764.40;;;20.70
67822;BMP180;54434;50.096;20.082;2023-08-08T13:18:49;98763.00;;;20.60
67822;BMP180;54434;50.096;20.082;2023-08-08T13:21:27;98753.60;;;20.60
67822;BMP180;54434;50.096;20.082;2023-08-08T13:24:05;98766.00;;;20.50
67822;BMP180;54434;50.096;20.082;2023-08-08T13:26:44;98767.40;;;20.64
67822;BMP180;54434;50.096;20.082;2023-08-08T13:29:22;98763.80;;;20.90
67822;BMP180;54434;50.096;20.082;2023-08-08T13:31:59;98760.00;;;21.10
67822;BMP180;54434;50.096;20.082;2023-08-08T13:34:37;98757.00;;;21.10
67822;BMP180;54434;50.096;20.082;2023-08-08T13:37:15;98746.20;;;21.10
67822;BMP180;54434;50.096;20.082;2023-08-08T13:39:52;98743.60;;;21.00
67822;BMP180;54434;50.096;20.082;2023-08-08T13:42:30;98751.20;;;20.88
67822;BMP180;54434;50.096;20.082;2023-08-08T13:45:10;98751.40;;;20.80
67822;BMP180;54434;50.096;20.082;2023-08-08T13:47:48;98748.40;;;20.80
67822;BMP180;54434;50.096;20.082;2023-08-08T13:50:27;98749.40;;;20.82
67822;BMP180;54434;50.096;20.082;2023-08-08T13:53:05;98747.40;;;20.90
67822;BMP180;54434;50.096;20.082;2023-08-08T13:55:42;98746.80;;;20.90
67822;BMP180;54434;50.096;20.082;2023-08-08T13:58:20;98751.00;;;20.80
67822;BMP180;54434;50.096;20.082;2023-08-08T14:00:58;98751.00;;;20.80
67822;BMP180;54434;50.096;20.082;2023-08-08T14:03:36;98750.80;;;20.80
67822;BMP180;54434;50.096;20.082;2023-08-08T14:06:14;98745.00;;;20.80
67822;BMP180;54434;50.096;20.082;2023-08-08T14:08:51;98746.60;;;20.80
67822;BMP180;54434;50.096;20.082;2023-08-08T14:11:29;98750.60;;;20.80
67822;BMP180;54434;50.096;20.082;2023-08-08T14:14:07;98752.80;;;20.70
67822;BMP180;54434;50.096;20.082;2023-08-08T14:16:46;98752.00;;;20.60
67822;BMP180;54434;50.096;20.082;2023-08-08T14:19:23;98753.80;;;20.56
67822;BMP180;54434;50.096;20.082;2023-08-08T14:22:01;98755.20;;;20.50
67822;BMP180;54434;50.096;20.082;2023-08-08T14:24:40;98755.20;;;20.50
67822;BMP180;54434;50.096;20.082;2023-08-08T14:27:20;98763.00;;;20.40
67822;BMP180;54434;50.096;20.082;2023-08-08T14:29:58;98760.40;;;20.40
67822;BMP180;54434;50.096;20.082;2023-08-08T14:32:35;98760.80;;;20.30
67822;BMP180;54434;50.096;20.082;2023-08-08T14:35:14;98762.20;;;20.30
67822;BMP180;54434;50.096;20.082;2023-08-08T14:37:51;98761.60;;;20.30
67822;BMP180;54434;50.096;20.082;2023-08-08T14:40:28;98755.40;;;20.40
67822;BMP180;54434;50.096;20.082;2023-08-08T14:43:09;98752.60;;;20.60
67822;BMP180;54434;50.096;20.082;2023-08-08T14:45:47;98756.20;;;20.70
67822;BMP180;54434;50.096;20.082;2023-08-08T14:48:25;98753.80;;;20.80
67822;BMP180;54434;50.096;20.082;2023-08-08T14:51:03;98748.60;;;20.80
67822;BMP180;54434;50.096;20.082;2023-08-08T14:53:40;98751.00;;;20.90
67822;BMP180;54434;50.096;20.082;2023-08-08T14:56:17;98748.40;;;20.90
67822;BMP180;54434;50.096;20.082;2023-08-08T14:58:54;98750.80;;;20.90
67822;BMP180;54434;50.096;20.082;2023-08-08T15:01:31;98750.60;;;20.90